Time;durP1;ratioP1;P1;durP2;ratioP2;P2;SDS_P1;SDS_P2;PMS_P1;PMS_P2;Temp;Humidity;BMP_temperature;BMP_pressure;BME280_temperature;BME280_humidity;BME280_pressure;Samples;Min_cycle;Max_cycle;Signal;HPM_P1;HPM_P2
2022/06/04 00:02:06;;;;;;;2.35;1.48;;;14.40;99.90;;;;;;5043226;28;20048;-32
2022/06/04 00:04:32;;;;;;;1.52;1.42;;;14.40;99.90;;;;;;5053072;28;20029;-31
2022/06/04 00:06:58;;;;;;;2.20;1.30;;;14.50;99.90;;;;;;5035331;28;20029;-46
2022/06/04 00:09:27;;;;;;;3.65;1.80;;;14.50;99.90;;;;;;5038787;28;20025;-32
2022/06/04 00:17:22;;;;;;;2.72;1.60;;;14.30;99.90;;;;;;5037548;28;20048;-36
2022/06/04 00:19:49;;;;;;;1.73;1.50;;;14.30;99.90;;;;;;5050448;28;20041;-37
2022/06/04 00:22:15;;;;;;;1.77;1.50;;;14.30;99.90;;;;;;5048646;28;20465;-36
2022/06/04 00:24:42;;;;;;;4.65;1.48;;;14.20;99.90;;;;;;5031766;28;20037;-34
2022/06/04 00:27:15;;;;;;;1.98;1.27;;;14.20;99.90;;;;;;5045693;28;20257;-37
2022/06/04 00:29:41;;;;;;;5.18;2.28;;;14.20;99.90;;;;;;5052557;28;20033;-36
2022/06/04 00:32:07;;;;;;;3.88;2.08;;;14.10;99.90;;;;;;5034885;28;20455;-36
2022/06/04 00:34:33;;;;;;;3.13;1.50;;;14.00;99.90;;;;;;5040984;28;20064;-36
2022/06/04 00:36:59;;;;;;;5.80;2.10;;;14.00;99.90;;;;;;5032315;28;20057;-36
2022/06/04 00:39:24;;;;;;;3.53;1.83;;;14.00;99.90;;;;;;5032675;28;20057;-35
2022/06/04 00:42:12;;;;;;;2.90;1.60;;;14.00;99.90;;;;;;5037736;28;20040;-36
2022/06/04 00:45:03;;;;;;;6.65;2.35;;;13.90;99.90;;;;;;5041279;28;20025;-36
2022/06/04 00:47:29;;;;;;;6.32;1.80;;;13.90;99.90;;;;;;5032482;28;20069;-35
2022/06/04 00:49:55;;;;;;;2.88;1.95;;;13.90;99.90;;;;;;5031424;28;20571;-35
2022/06/04 00:52:21;;;;;;;2.70;2.08;;;13.80;99.90;;;;;;5039952;28;20049;-36
2022/06/04 00:54:52;;;;;;;2.53;1.85;;;13.80;99.90;;;;;;5033561;28;20026;-36
2022/06/04 00:57:52;;;;;;;2.17;1.98;;;13.80;99.90;;;;;;5030854;28;20076;-36
2022/06/04 01:00:28;;;;;;;4.97;2.30;;;13.70;99.90;;;;;;5035845;28;20555;-36
2022/06/04 01:03:15;;;;;;;5.97;2.28;;;13.70;99.90;;;;;;5041217;28;20025;-36
2022/06/04 01:05:47;;;;;;;3.92;2.60;;;13.70;99.90;;;;;;5041955;28;20491;-31
2022/06/04 01:08:32;;;;;;;3.17;2.25;;;13.70;99.90;;;;;;5033875;28;20029;-36
2022/06/04 01:11:33;;;;;;;3.85;2.95;;;13.60;99.90;;;;;;5046192;28;20630;-37
2022/06/04 01:14:18;;;;;;;5.03;2.80;;;13.50;99.90;;;;;;5042747;28;20038;-28
2022/06/04 01:16:55;;;;;;;19.45;4.32;;;13.40;99.90;;;;;;5049788;28;20053;-34
2022/06/04 01:19:47;;;;;;;3.38;2.97;;;13.40;99.90;;;;;;5042556;28;20551;-29
2022/06/04 01:23:00;;;;;;;5.53;3.53;;;13.40;99.90;;;;;;5047552;28;20096;-56
2022/06/04 01:25:47;;;;;;;4.82;3.35;;;13.30;99.90;;;;;;5039714;28;20030;-37
2022/06/04 01:28:16;;;;;;;13.80;3.40;;;13.30;99.90;;;;;;5038706;28;20462;-33
2022/06/04 01:30:54;;;;;;;5.45;3.35;;;13.30;99.90;;;;;;5046445;28;20058;-37
2022/06/04 01:33:42;;;;;;;4.05;3.25;;;13.30;99.90;;;;;;5034887;28;20029;-37
2022/06/04 01:36:16;;;;;;;6.03;3.55;;;13.30;99.90;;;;;;5039707;28;20033;-37
2022/06/04 01:39:00;;;;;;;5.57;3.60;;;13.30;99.90;;;;;;5048990;28;20029;-35
2022/06/04 01:41:34;;;;;;;9.98;4.05;;;13.30;99.90;;;;;;5033046;28;20056;-35
2022/06/04 01:44:05;;;;;;;7.07;3.90;;;13.30;99.90;;;;;;5031950;28;20025;-34
2022/06/04 01:46:48;;;;;;;10.07;4.00;;;13.30;99.90;;;;;;5037053;28;20033;-36
2022/06/04 01:49:36;;;;;;;9.27;3.63;;;13.20;99.90;;;;;;5046241;28;20081;-36
2022/06/04 01:52:07;;;;;;;6.57;3.90;;;13.20;99.90;;;;;;5055046;28;20029;-29
2022/06/04 01:54:40;;;;;;;9.50;3.50;;;13.10;99.90;;;;;;5036242;28;20465;-36
2022/06/04 01:57:23;;;;;;;5.88;4.07;;;13.20;99.90;;;;;;5038322;28;20544;-35
2022/06/04 01:59:57;;;;;;;8.70;3.90;;;13.20;99.90;;;;;;5038463;28;20021;-36
2022/06/04 02:02:45;;;;;;;7.30;3.85;;;13.10;99.90;;;;;;5050156;28;20025;-36
2022/06/04 02:05:18;;;;;;;15.60;4.25;;;13.10;99.90;;;;;;5049806;28;20029;-35
2022/06/04 02:07:48;;;;;;;6.63;4.40;;;13.20;99.90;;;;;;5053676;28;20116;-36
2022/06/04 02:10:24;;;;;;;7.28;3.95;;;13.20;99.90;;;;;;5045284;28;20490;-36
2022/06/04 02:12:53;;;;;;;5.28;3.78;;;13.10;99.90;;;;;;5056427;28;20519;-37
2022/06/04 02:15:22;;;;;;;8.52;4.07;;;13.10;99.90;;;;;;5047165;28;20094;-37
2022/06/04 02:17:54;;;;;;;4.70;3.95;;;13.00;99.90;;;;;;5045751;28;20105;-36
2022/06/04 02:20:20;;;;;;;8.00;4.05;;;13.00;99.90;;;;;;5042556;28;20025;-31
2022/06/04 02:22:45;;;;;;;10.32;3.63;;;12.90;99.90;;;;;;5051667;28;20021;-37
2022/06/04 02:25:12;;;;;;;6.65;4.28;;;13.00;99.90;;;;;;5037055;28;20331;-37
2022/06/04 02:27:39;;;;;;;4.10;3.80;;;13.00;99.90;;;;;;5035502;28;20108;-35
2022/06/04 02:30:08;;;;;;;12.68;3.58;;;13.00;99.90;;;;;;5043989;28;20069;-36
2022/06/04 02:32:52;;;;;;;7.70;3.90;;;13.00;99.90;;;;;;5049196;28;20031;-34
2022/06/04 02:35:55;;;;;;;13.23;3.90;;;12.90;99.90;;;;;;5044221;28;20103;-33
2022/06/04 02:38:40;;;;;;;7.95;3.78;;;13.00;99.90;;;;;;5044094;28;20032;-37
2022/06/04 02:41:42;;;;;;;4.53;3.28;;;13.00;99.90;;;;;;5036974;28;20499;-37
2022/06/04 02:44:26;;;;;;;5.97;3.05;;;12.90;99.90;;;;;;5029906;28;20155;-36
2022/06/04 02:47:09;;;;;;;4.68;3.55;;;12.90;99.90;;;;;;5054666;28;20481;-36
2022/06/04 02:50:02;;;;;;;8.65;3.67;;;12.80;99.90;;;;;;5049008;28;20033;-36
2022/06/04 02:52:32;;;;;;;4.25;3.85;;;12.80;99.90;;;;;;5046293;28;20044;-35
2022/06/04 02:55:08;;;;;;;4.43;3.60;;;12.70;99.90;;;;;;5038593;28;20508;-37
2022/06/04 02:57:37;;;;;;;7.72;3.83;;;12.70;99.90;;;;;;5033799;28;20026;-37
2022/06/04 03:00:05;;;;;;;6.22;3.47;;;12.70;99.90;;;;;;5043140;28;20030;-36
2022/06/04 03:02:33;;;;;;;9.82;4.03;;;12.60;99.90;;;;;;5052058;28;20476;-35
2022/06/04 03:05:16;;;;;;;6.28;3.33;;;12.60;99.90;;;;;;5043428;28;20017;-35
2022/06/04 03:07:44;;;;;;;13.07;4.28;;;12.60;99.90;;;;;;5035658;28;20385;-37
2022/06/04 03:10:20;;;;;;;4.97;3.67;;;12.60;99.90;;;;;;5034326;28;20029;-35
2022/06/04 03:12:46;;;;;;;6.00;3.50;;;12.60;99.90;;;;;;5036442;28;20025;-37
2022/06/04 03:15:12;;;;;;;4.97;3.30;;;12.70;99.90;;;;;;5039325;28;20053;-36
2022/06/04 03:17:40;;;;;;;6.85;4.03;;;12.70;99.90;;;;;;5039879;28;20508;-36
2022/06/04 03:20:07;;;;;;;12.50;4.45;;;12.60;99.90;;;;;;5053534;28;20021;-36
2022/06/04 03:22:33;;;;;;;8.23;4.20;;;12.60;99.90;;;;;;5035210;28;20482;-35
2022/06/04 03:24:59;;;;;;;4.85;3.55;;;12.60;99.90;;;;;;5034107;28;20492;-35
2022/06/04 03:27:25;;;;;;;7.70;3.83;;;12.60;99.90;;;;;;5034416;28;20025;-37
2022/06/04 03:29:50;;;;;;;9.07;4.07;;;12.60;99.90;;;;;;5033893;28;20029;-30
2022/06/04 03:32:16;;;;;;;16.17;3.65;;;12.60;99.90;;;;;;5037335;28;20030;-29
2022/06/04 03:34:42;;;;;;;6.22;3.85;;;12.60;99.90;;;;;;5034549;28;20499;-30
2022/06/04 03:37:08;;;;;;;5.82;3.78;;;12.50;99.90;;;;;;5049260;28;20043;-32
2022/06/04 03:39:33;;;;;;;9.80;3.88;;;12.50;99.90;;;;;;5041379;28;20033;-31
2022/06/04 03:42:01;;;;;;;7.13;3.72;;;12.40;99.90;;;;;;5034554;28;20155;-33
2022/06/04 03:44:27;;;;;;;14.30;3.28;;;12.50;99.90;;;;;;5037425;28;20031;-29
2022/06/04 03:46:53;;;;;;;8.38;3.65;;;12.40;99.90;;;;;;5036745;28;20044;-33
2022/06/04 03:49:19;;;;;;;7.57;3.78;;;12.40;99.90;;;;;;5035033;28;20024;-33
2022/06/04 03:51:45;;;;;;;7.47;3.38;;;12.40;99.90;;;;;;5038687;28;20108;-29
2022/06/04 03:54:11;;;;;;;7.72;3.15;;;12.40;99.90;;;;;;5053346;28;20056;-46
2022/06/04 03:56:37;;;;;;;11.07;3.97;;;12.40;99.90;;;;;;5041678;28;20416;-31
2022/06/04 03:59:03;;;;;;;15.95;4.15;;;12.40;99.90;;;;;;5049632;28;20028;-31
2022/06/04 04:01:30;;;;;;;7.65;3.53;;;12.40;99.90;;;;;;5039824;28;20025;-33
2022/06/04 04:03:58;;;;;;;8.70;3.80;;;12.40;99.90;;;;;;5041632;28;20520;-31
2022/06/04 04:06:27;;;;;;;4.70;3.05;;;12.50;99.90;;;;;;5042199;28;20049;-32
2022/06/04 04:08:53;;;;;;;8.02;3.65;;;12.50;99.90;;;;;;5033997;28;20477;-32
2022/06/04 04:11:22;;;;;;;7.45;4.25;;;12.50;99.90;;;;;;5031014;28;20041;-36
2022/06/04 04:13:48;;;;;;;6.70;3.67;;;12.50;99.90;;;;;;5043366;28;20549;-36
2022/06/04 04:16:17;;;;;;;9.70;3.95;;;12.50;99.90;;;;;;5052787;28;20543;-36
2022/06/04 04:18:42;;;;;;;10.52;3.40;;;12.60;99.90;;;;;;5051926;28;20543;-36
2022/06/04 04:21:11;;;;;;;7.93;3.85;;;12.60;99.90;;;;;;5036287;28;20025;-37
2022/06/04 04:23:38;;;;;;;5.75;3.40;;;12.60;99.90;;;;;;5037698;28;20065;-37
2022/06/04 04:26:05;;;;;;;4.30;3.45;;;12.60;99.90;;;;;;5036576;28;20061;-37
2022/06/04 04:28:31;;;;;;;4.00;3.60;;;12.60;99.90;;;;;;5048123;28;20495;-35
2022/06/04 04:30:57;;;;;;;7.05;4.55;;;12.50;99.90;;;;;;5034630;28;20025;-38
2022/06/04 04:33:23;;;;;;;15.90;4.55;;;12.50;99.90;;;;;;5036235;28;20663;-37
2022/06/04 04:35:48;;;;;;;12.82;4.45;;;12.50;99.90;;;;;;5042628;28;20037;-36
2022/06/04 04:38:18;;;;;;;5.70;3.55;;;12.50;99.90;;;;;;5032998;28;20064;-42
2022/06/04 04:40:44;;;;;;;5.03;3.60;;;12.60;99.90;;;;;;5031620;28;20032;-37
2022/06/04 04:43:10;;;;;;;6.45;3.60;;;12.60;99.90;;;;;;5035922;28;20024;-36
2022/06/04 04:45:36;;;;;;;5.00;3.47;;;12.70;99.90;;;;;;5049203;28;20032;-36
2022/06/04 04:48:02;;;;;;;7.47;3.60;;;12.80;99.90;;;;;;5044830;28;20021;-36
2022/06/04 04:50:31;;;;;;;6.03;3.15;;;12.80;99.90;;;;;;5038282;28;20057;-35
2022/06/04 04:52:58;;;;;;;5.55;3.50;;;12.90;99.90;;;;;;5041499;28;20464;-36
2022/06/04 04:55:24;;;;;;;8.82;3.40;;;13.00;99.90;;;;;;5040000;28;20050;-30
2022/06/04 04:57:50;;;;;;;11.90;3.78;;;13.10;99.90;;;;;;5049906;28;20025;-30
2022/06/04 05:00:17;;;;;;;13.15;3.97;;;13.20;99.90;;;;;;5036193;28;20017;-31
2022/06/04 05:02:44;;;;;;;7.50;3.35;;;13.20;99.90;;;;;;5044486;28;20029;-36
2022/06/04 05:05:11;;;;;;;11.25;4.45;;;13.30;99.90;;;;;;5051389;28;20476;-36
2022/06/04 05:07:37;;;;;;;12.55;3.80;;;13.20;99.90;;;;;;5051681;28;20484;-36
2022/06/04 05:10:03;;;;;;;8.65;4.13;;;13.10;99.90;;;;;;5044002;28;20063;-35
2022/06/04 05:12:28;;;;;;;10.88;3.85;;;13.20;99.90;;;;;;5036848;28;20508;-36
2022/06/04 05:14:54;;;;;;;9.93;2.97;;;13.30;99.90;;;;;;5033897;28;20405;-35
2022/06/04 05:17:19;;;;;;;8.98;3.75;;;13.30;99.90;;;;;;5034483;28;20052;-37
2022/06/04 05:19:45;;;;;;;7.07;4.13;;;13.30;99.90;;;;;;5032791;28;20096;-36
2022/06/04 05:22:11;;;;;;;7.60;4.20;;;13.40;99.90;;;;;;5038906;28;20018;-37
2022/06/04 05:24:36;;;;;;;7.90;4.00;;;13.40;99.90;;;;;;5055469;28;20107;-42
2022/06/04 05:27:04;;;;;;;11.40;4.20;;;13.20;99.90;;;;;;5046688;28;20029;-54
2022/06/04 05:29:31;;;;;;;11.47;4.27;;;13.20;99.90;;;;;;5039436;28;20116;-36
2022/06/04 05:31:57;;;;;;;6.25;4.00;;;13.20;99.90;;;;;;5051209;28;20432;-36
2022/06/04 05:34:24;;;;;;;8.13;3.80;;;13.20;99.90;;;;;;5037001;28;20072;-37
2022/06/04 05:36:53;;;;;;;12.60;4.35;;;13.30;99.90;;;;;;5050575;28;20037;-36
2022/06/04 05:39:19;;;;;;;22.70;6.53;;;13.30;99.90;;;;;;5036436;28;20493;-36
2022/06/04 05:41:45;;;;;;;17.15;4.60;;;13.20;99.90;;;;;;5049421;28;20017;-36
2022/06/04 05:44:10;;;;;;;16.55;4.00;;;13.20;99.90;;;;;;5051679;28;20531;-36
2022/06/04 05:46:38;;;;;;;10.93;4.13;;;13.30;99.90;;;;;;5052133;28;20021;-35
2022/06/04 05:49:03;;;;;;;8.15;3.70;;;13.30;99.90;;;;;;5042266;28;20022;-37
2022/06/04 05:51:30;;;;;;;9.93;3.78;;;13.40;99.90;;;;;;5041045;28;20036;-37
2022/06/04 05:53:56;;;;;;;10.38;4.72;;;13.50;99.90;;;;;;5053986;28;20516;-36
2022/06/04 05:56:28;;;;;;;8.15;4.15;;;13.60;99.90;;;;;;5040013;28;20545;-36
2022/06/04 05:59:00;;;;;;;11.00;3.60;;;13.70;99.90;;;;;;5036670;28;20389;-37
2022/06/04 06:01:28;;;;;;;9.73;3.75;;;13.80;99.90;;;;;;5046625;28;20013;-37
2022/06/04 06:03:55;;;;;;;9.05;3.88;;;13.90;99.90;;;;;;5038763;28;20501;-37
2022/06/04 06:06:23;;;;;;;5.90;3.80;;;14.00;99.90;;;;;;5045064;28;20013;-46
2022/06/04 06:08:49;;;;;;;7.97;3.88;;;14.00;99.90;;;;;;5053583;28;20492;-37
2022/06/04 06:11:18;;;;;;;10.63;3.97;;;14.00;99.90;;;;;;5047467;28;20025;-37
2022/06/04 06:13:44;;;;;;;9.80;4.70;;;14.00;99.90;;;;;;5036837;28;20482;-37
2022/06/04 06:16:38;;;;;;;9.43;3.63;;;14.10;99.90;;;;;;5036996;28;20120;-34
2022/06/04 06:19:04;;;;;;;13.52;4.35;;;14.90;99.90;;;;;;5053808;28;20063;-30
2022/06/04 06:21:32;;;;;;;8.63;4.10;;;16.60;99.90;;;;;;5043466;28;20025;-30
2022/06/04 06:23:59;;;;;;;5.18;3.72;;;18.30;99.90;;;;;;5041507;28;20358;-31
2022/06/04 06:26:30;;;;;;;5.85;2.97;;;19.10;99.90;;;;;;5044508;28;20021;-29
2022/06/04 06:28:56;;;;;;;7.53;3.42;;;19.60;99.90;;;;;;5041095;28;20027;-32
2022/06/04 06:31:24;;;;;;;5.55;3.55;;;18.80;99.90;;;;;;5051093;28;20536;-39
2022/06/04 06:33:50;;;;;;;13.02;2.97;;;17.90;99.90;;;;;;5049506;28;20523;-31
2022/06/04 06:36:18;;;;;;;14.40;4.18;;;17.00;99.90;;;;;;5052382;28;20029;-34
2022/06/04 06:38:45;;;;;;;6.25;3.53;;;16.30;99.90;;;;;;5037727;28;20112;-46
2022/06/04 06:41:13;;;;;;;10.63;3.72;;;15.90;99.90;;;;;;5051109;28;20056;-37
2022/06/04 06:43:39;;;;;;;7.35;3.25;;;15.70;99.90;;;;;;5045010;28;20068;-38
2022/06/04 06:46:08;;;;;;;9.32;4.18;;;15.60;99.90;;;;;;5044153;28;20469;-45
2022/06/04 06:48:35;;;;;;;7.22;3.78;;;15.50;99.90;;;;;;5043127;28;20024;-34
2022/06/04 06:51:22;;;;;;;6.60;3.77;;;15.30;99.90;;;;;;5048563;28;20033;-37
2022/06/04 06:53:48;;;;;;;6.47;3.83;;;15.20;99.90;;;;;;5024366;28;20485;-56
2022/06/04 06:56:17;;;;;;;9.32;3.45;;;15.30;99.90;;;;;;5035885;28;20063;-32
2022/06/04 06:58:43;;;;;;;11.20;4.07;;;15.30;99.90;;;;;;5046548;28;20492;-32
2022/06/04 07:01:11;;;;;;;8.18;3.70;;;15.20;99.90;;;;;;5040512;28;20021;-33
2022/06/04 07:03:38;;;;;;;4.65;3.60;;;15.10;99.90;;;;;;5041570;28;20037;-31
2022/06/04 07:06:07;;;;;;;7.30;3.38;;;15.20;99.90;;;;;;5052219;28;20105;-32
2022/06/04 07:08:33;;;;;;;8.75;3.38;;;15.30;99.90;;;;;;5044976;28;20040;-37
2022/06/04 07:10:59;;;;;;;9.80;3.58;;;15.50;99.90;;;;;;5051750;28;20393;-38
2022/06/04 07:13:24;;;;;;;5.85;3.83;;;15.70;99.90;;;;;;5035016;28;20022;-45
2022/06/04 07:15:50;;;;;;;9.32;3.13;;;15.90;99.90;;;;;;5033719;28;20083;-38
2022/06/04 07:18:16;;;;;;;6.97;3.10;;;16.40;99.90;;;;;;5041578;28;20049;-36
2022/06/04 07:20:42;;;;;;;8.07;3.35;;;16.40;99.90;;;;;;5054363;28;20412;-36
2022/06/04 07:23:09;;;;;;;4.70;3.45;;;16.30;99.90;;;;;;5052511;28;20031;-32
2022/06/04 07:25:35;;;;;;;6.20;3.10;;;16.30;99.90;;;;;;5048887;28;20461;-35
2022/06/04 07:28:00;;;;;;;9.88;3.65;;;16.10;99.90;;;;;;5034362;28;20025;-36
2022/06/04 07:30:26;;;;;;;5.82;2.83;;;16.00;99.90;;;;;;5034174;28;20390;-36
2022/06/04 07:32:53;;;;;;;7.28;3.03;;;15.70;99.90;;;;;;5047785;28;20036;-37
2022/06/04 07:35:19;;;;;;;7.90;3.17;;;15.70;99.90;;;;;;5050326;28;20461;-38
2022/06/04 07:37:45;;;;;;;5.47;2.83;;;15.70;99.90;;;;;;5039294;28;20017;-36
2022/06/04 07:40:11;;;;;;;6.85;2.97;;;15.70;99.90;;;;;;5039254;28;20024;-31
2022/06/04 07:42:37;;;;;;;4.75;3.65;;;15.80;99.90;;;;;;5034512;28;20506;-35
2022/06/04 07:45:03;;;;;;;9.15;3.42;;;15.80;99.90;;;;;;5036393;28;20030;-36
2022/06/04 07:47:29;;;;;;;4.30;2.67;;;15.80;99.90;;;;;;5032010;28;20153;-38
2022/06/04 07:49:56;;;;;;;6.82;3.20;;;15.90;99.90;;;;;;5032920;28;20116;-41
2022/06/04 07:52:22;;;;;;;5.07;2.50;;;16.00;99.90;;;;;;5036822;28;20461;-43
2022/06/04 07:54:48;;;;;;;7.30;3.42;;;16.20;99.90;;;;;;5032417;28;20041;-64
2022/06/04 07:57:14;;;;;;;4.65;2.92;;;16.20;99.90;;;;;;5037354;28;20041;-37
2022/06/04 07:59:39;;;;;;;4.80;2.75;;;16.20;99.90;;;;;;5034637;28;20017;-37
2022/06/04 08:02:05;;;;;;;4.40;2.53;;;16.30;99.90;;;;;;5034749;28;20072;-36
2022/06/04 08:04:31;;;;;;;7.07;2.83;;;16.40;99.90;;;;;;5044396;28;20109;-34
2022/06/04 08:06:57;;;;;;;8.15;2.53;;;16.60;99.90;;;;;;5032912;28;20120;-41
2022/06/04 08:09:22;;;;;;;10.20;3.15;;;16.70;99.90;;;;;;5039649;28;20021;-36
2022/06/04 08:11:48;;;;;;;9.18;3.22;;;16.90;99.90;;;;;;5051691;28;20029;-37
2022/06/04 08:14:16;;;;;;;4.55;3.05;;;17.30;99.90;;;;;;5045631;28;20025;-37
2022/06/04 08:16:45;;;;;;;3.05;2.63;;;17.70;99.90;;;;;;5036949;28;20132;-37
2022/06/04 08:19:11;;;;;;;4.78;2.55;;;18.10;99.90;;;;;;5035704;28;20108;-37
2022/06/04 08:21:38;;;;;;;4.60;2.70;;;18.20;99.90;;;;;;5031889;28;20036;-37
2022/06/04 08:24:05;;;;;;;4.10;2.60;;;18.20;99.90;;;;;;5033331;28;20032;-38
2022/06/04 08:26:30;;;;;;;9.90;2.63;;;18.40;99.90;;;;;;5035861;28;20044;-38
2022/06/04 08:28:56;;;;;;;10.20;3.22;;;18.20;99.90;;;;;;5034214;28;20033;-44
2022/06/04 08:31:22;;;;;;;3.95;2.45;;;18.10;99.90;;;;;;5043961;28;20046;-37
2022/06/04 08:33:48;;;;;;;4.22;2.55;;;18.00;99.90;;;;;;5047642;28;20107;-38
2022/06/04 08:36:16;;;;;;;7.55;2.53;;;17.90;99.90;;;;;;5051510;28;20127;-39
2022/06/04 08:38:42;;;;;;;;;;;17.70;99.90;;;;;;5035720;28;20029;-47
2022/06/04 08:41:18;;;;;;;10.93;2.85;;;17.40;99.90;;;;;;5042637;28;20044;-37
2022/06/04 08:44:02;;;;;;;4.45;2.60;;;17.20;99.90;;;;;;5051320;28;20524;-38
2022/06/04 08:46:38;;;;;;;5.72;2.95;;;17.10;99.90;;;;;;5033648;28;20120;-56
2022/06/04 08:49:11;;;;;;;3.67;2.70;;;17.10;99.90;;;;;;5041325;28;20132;-61
2022/06/04 08:51:37;;;;;;;4.07;3.40;;;17.20;99.90;;;;;;5051976;28;20071;-56
2022/06/04 08:59:40;;;;;;;5.30;3.10;;;17.40;99.90;;;;;;5041101;28;20041;-38
2022/06/04 09:02:16;;;;;;;4.25;2.63;;;17.70;99.90;;;;;;5039659;28;20041;-37
2022/06/04 09:04:59;;;;;;;7.05;3.70;;;17.80;99.90;;;;;;5053485;28;20024;-37
2022/06/04 09:07:40;;;;;;;6.55;2.78;;;17.80;99.90;;;;;;5033296;28;20386;-37
2022/06/04 09:10:27;;;;;;;3.83;2.72;;;17.90;99.90;;;;;;5051966;28;20021;-36
2022/06/04 09:12:54;;;;;;;;;;;18.10;99.90;;;;;;5053767;28;20028;-38
2022/06/04 09:15:49;;;;;;;3.27;2.50;;;18.30;99.90;;;;;;5038928;28;20273;-38
2022/06/04 09:18:33;;;;;;;3.38;2.47;;;18.50;99.90;;;;;;5036521;28;20086;-37
2022/06/04 09:21:01;;;;;;;4.43;2.05;;;18.80;99.90;;;;;;5041575;28;20038;-38
2022/06/04 09:23:36;;;;;;;3.97;2.63;;;18.90;99.90;;;;;;5033386;28;20370;-38
2022/06/04 09:26:07;;;;;;;6.70;2.60;;;18.80;99.90;;;;;;5033034;28;20430;-38
2022/06/04 09:28:54;;;;;;;3.30;2.58;;;18.90;99.90;;;;;;5046477;28;20102;-38
2022/06/04 09:31:20;;;;;;;;;;;18.90;99.90;;;;;;5051918;28;20057;-36
2022/06/04 09:33:53;;;;;;;4.25;2.60;;;19.00;99.90;;;;;;5051252;28;19966;-38
2022/06/04 09:36:24;;;;;;;4.15;2.40;;;19.00;99.90;;;;;;5040938;28;20057;-37
2022/06/04 09:39:17;;;;;;;10.50;3.65;;;19.00;99.90;;;;;;5036433;28;20033;-38
2022/06/04 09:41:50;;;;;;;5.25;2.20;;;19.20;99.90;;;;;;5035830;28;20041;-38
2022/06/04 09:44:16;;;;;;;6.60;2.92;;;19.20;99.90;;;;;;5049469;28;20542;-38
2022/06/04 09:46:44;;;;;;;5.18;2.50;;;19.00;99.90;;;;;;5035820;28;20033;-39
2022/06/04 09:49:37;;;;;;;7.72;2.45;;;18.90;99.90;;;;;;5031760;28;20033;-37
2022/06/04 09:52:18;;;;;;;3.30;2.40;;;18.90;99.90;;;;;;5033812;28;20641;-46
2022/06/04 09:54:58;;;;;;;4.03;2.40;;;18.90;99.90;;;;;;5041771;28;20031;-37
2022/06/04 09:57:30;;;;;;;2.90;2.17;;;18.90;99.90;;;;;;5032855;28;20474;-38
2022/06/04 09:59:57;;;;;;;5.53;2.78;;;19.00;99.90;;;;;;5035571;28;20017;-39
2022/06/04 10:02:24;;;;;;;;;;;18.90;99.90;;;;;;5043919;28;20033;-37
2022/06/04 10:05:03;;;;;;;3.55;3.10;;;19.00;99.90;;;;;;5050163;28;19953;-37
2022/06/04 10:07:34;;;;;;;5.32;2.75;;;19.20;99.90;;;;;;5041949;28;20029;-38
2022/06/04 10:10:27;;;;;;;2.88;2.20;;;19.30;99.90;;;;;;5036092;28;20029;-38
2022/06/04 10:15:41;;;;;;;7.10;2.10;;;19.70;99.90;;;;;;5037224;28;20044;-36
2022/06/04 10:18:35;;;;;;;3.67;1.90;;;19.90;99.90;;;;;;5043546;28;20037;-33
2022/06/04 10:21:17;;;;;;;3.35;2.10;;;19.90;99.90;;;;;;5047258;28;20018;-31
2022/06/04 10:23:46;;;;;;;6.97;2.40;;;20.00;99.90;;;;;;5035946;28;20473;-29
2022/06/04 10:26:49;;;;;;;3.97;2.33;;;19.80;99.90;;;;;;5040468;28;20387;-38
2022/06/04 10:29:33;;;;;;;3.65;2.53;;;19.70;99.90;;;;;;5047480;28;20484;-35
2022/06/04 10:32:10;;;;;;;8.43;3.15;;;19.60;99.90;;;;;;5042236;28;20036;-28
2022/06/04 10:35:09;;;;;;;4.43;2.25;;;19.40;99.90;;;;;;5039383;28;20100;-34
2022/06/04 10:38:06;;;;;;;2.72;2.10;;;19.60;99.90;;;;;;5048754;28;20095;-28
2022/06/04 10:40:53;;;;;;;3.45;2.00;;;19.60;99.90;;;;;;5047918;28;20036;-28
2022/06/04 10:43:42;;;;;;;4.18;2.25;;;19.70;99.90;;;;;;5053334;28;20546;-31
2022/06/04 10:46:26;;;;;;;5.63;2.42;;;19.80;99.90;;;;;;5047538;28;20022;-30
2022/06/04 10:49:07;;;;;;;6.00;2.22;;;19.80;99.90;;;;;;5051566;28;20040;-34
2022/06/04 10:52:06;;;;;;;4.05;2.30;;;19.90;99.90;;;;;;5047655;28;20080;-38
2022/06/04 10:54:47;;;;;;;3.92;2.47;;;19.90;99.90;;;;;;5054254;28;20060;-39
2022/06/04 10:57:38;;;;;;;8.00;2.60;;;19.90;99.90;;;;;;5055325;28;20438;-38
2022/06/04 11:00:09;;;;;;;5.93;1.90;;;19.90;99.90;;;;;;5035666;28;20472;-39
2022/06/04 11:02:54;;;;;;;6.93;2.30;;;19.80;99.90;;;;;;5053764;28;20021;-36
2022/06/04 11:05:27;;;;;;;5.03;2.00;;;20.00;99.90;;;;;;5035471;28;20473;-38
2022/06/04 11:08:18;;;;;;;4.22;2.03;;;20.10;99.90;;;;;;5035209;28;20041;-38
2022/06/04 11:10:49;;;;;;;5.30;2.30;;;20.20;99.90;;;;;;5035413;28;20030;-37
2022/06/04 11:13:39;;;;;;;6.15;2.67;;;20.30;99.90;;;;;;5035030;28;20029;-38
2022/06/04 11:16:09;;;;;;;3.38;2.95;;;20.30;99.90;;;;;;5039406;28;20053;-37
2022/06/04 11:18:49;;;;;;;2.72;2.15;;;20.40;99.90;;;;;;5039928;28;20492;-38
2022/06/04 11:21:40;;;;;;;3.45;2.38;;;20.10;99.90;;;;;;5044739;28;20090;-37
2022/06/04 11:24:15;;;;;;;3.88;2.25;;;20.30;99.90;;;;;;5040364;28;20017;-38
2022/06/04 11:26:45;;;;;;;2.67;1.85;;;20.40;99.90;;;;;;5045623;28;20033;-37
2022/06/04 11:29:12;;;;;;;6.43;2.40;;;20.50;99.90;;;;;;5049986;28;20114;-38
2022/06/04 11:32:02;;;;;;;6.72;2.60;;;20.60;99.90;;;;;;5033923;28;20030;-38
2022/06/04 11:34:36;;;;;;;4.57;1.95;;;20.60;99.90;;;;;;5034794;28;20513;-39
2022/06/04 11:37:14;;;;;;;3.47;2.08;;;20.40;99.90;;;;;;5034376;28;20040;-39
2022/06/04 11:39:58;;;;;;;3.38;1.92;;;20.50;99.90;;;;;;5050912;28;20026;-38
2022/06/04 11:42:44;;;;;;;5.03;2.63;;;20.60;99.90;;;;;;5035141;28;20102;-53
2022/06/04 11:45:44;;;;;;;3.93;2.00;;;20.70;99.90;;;;;;5047782;28;20497;-38
2022/06/04 11:48:46;;;;;;;6.45;2.45;;;20.50;99.90;;;;;;5040171;28;20025;-38
2022/06/04 11:51:31;;;;;;;2.38;2.25;;;20.50;99.90;;;;;;5043312;28;20035;-37
2022/06/04 11:54:08;;;;;;;7.03;2.63;;;20.50;99.90;;;;;;5059582;28;20026;-38
2022/06/04 11:56:49;;;;;;;6.85;2.30;;;20.50;99.90;;;;;;5044809;28;20524;-39
2022/06/04 11:59:38;;;;;;;6.53;2.35;;;20.50;99.90;;;;;;5049046;28;20482;-37
2022/06/04 12:02:14;;;;;;;5.22;2.25;;;20.60;99.90;;;;;;5040814;28;20116;-36
2022/06/04 12:05:05;;;;;;;2.33;2.13;;;20.70;99.90;;;;;;5033732;28;20017;-38
2022/06/04 12:07:41;;;;;;;2.95;2.60;;;20.60;99.90;;;;;;5045811;28;20446;-37
2022/06/04 12:10:22;;;;;;;4.97;2.00;;;20.60;99.90;;;;;;5035158;28;20052;-38
2022/06/04 12:13:13;;;;;;;7.63;2.25;;;20.70;99.90;;;;;;5040455;28;20500;-42
2022/06/04 12:15:48;;;;;;;4.03;2.10;;;20.80;99.90;;;;;;5041384;28;20033;-38
2022/06/04 12:18:41;;;;;;;2.83;2.40;;;21.10;99.90;;;;;;5048183;28;20033;-37
2022/06/04 12:24:18;;;;;;;2.35;2.15;;;20.90;99.90;;;;;;5041304;28;20167;-36
2022/06/04 12:26:47;;;;;;;4.70;2.53;;;20.90;99.90;;;;;;5044177;28;20470;-29
2022/06/04 12:29:28;;;;;;;5.28;2.75;;;20.70;99.90;;;;;;5032418;28;20029;-36
2022/06/04 12:32:06;;;;;;;8.82;2.53;;;20.50;99.90;;;;;;5037190;28;20047;-29
2022/06/04 12:34:37;;;;;;;2.97;2.38;;;20.30;99.90;;;;;;5050751;28;20056;-32
2022/06/04 12:37:06;;;;;;;2.97;2.30;;;20.20;99.90;;;;;;5052231;28;20029;-30
2022/06/04 12:39:37;;;;;;;4.97;2.83;;;20.00;99.90;;;;;;5044291;28;20087;-33
2022/06/04 12:42:21;;;;;;;2.30;2.10;;;20.10;99.90;;;;;;5046998;28;20092;-28
2022/06/04 12:45:03;;;;;;;4.05;2.55;;;20.00;99.90;;;;;;5033539;28;20025;-32
2022/06/04 12:47:32;;;;;;;4.40;2.72;;;19.90;99.90;;;;;;5043631;28;20028;-32
2022/06/04 12:50:00;;;;;;;3.38;2.92;;;19.90;99.90;;;;;;5046162;28;20430;-31
2022/06/04 12:52:44;;;;;;;3.35;2.85;;;20.10;99.90;;;;;;5040301;28;20024;-32
2022/06/04 12:55:25;;;;;;;7.03;2.78;;;20.40;99.90;;;;;;5049477;28;20029;-33
2022/06/04 12:57:55;;;;;;;4.18;2.20;;;20.40;99.90;;;;;;5051099;28;20477;-33
2022/06/04 13:00:25;;;;;;;3.90;2.67;;;20.70;99.90;;;;;;5037369;28;20021;-32
2022/06/04 13:03:08;;;;;;;4.78;2.65;;;21.10;99.90;;;;;;5032634;28;20077;-29
2022/06/04 13:05:37;;;;;;;7.30;2.67;;;21.80;99.90;;;;;;5033246;28;20026;-37
2022/06/04 13:08:16;;;;;;;3.13;2.63;;;22.30;99.90;;;;;;5047058;28;20743;-33
2022/06/04 13:10:47;;;;;;;3.33;2.10;;;22.60;99.90;;;;;;5040731;28;20032;-28
2022/06/04 13:13:21;;;;;;;3.47;2.88;;;22.90;99.90;;;;;;5033752;28;20490;-32
2022/06/04 13:15:54;;;;;;;3.47;2.50;;;22.80;99.90;;;;;;5042881;28;20041;-28
2022/06/04 13:18:30;;;;;;;8.23;2.95;;;22.60;99.90;;;;;;5043179;28;20604;-31
2022/06/04 13:21:01;;;;;;;3.95;2.58;;;22.60;99.90;;;;;;5042850;28;20021;-31
2022/06/04 13:23:50;;;;;;;3.80;2.30;;;22.70;99.90;;;;;;5042708;28;20032;-30
2022/06/04 13:26:31;;;;;;;2.83;2.30;;;22.70;99.90;;;;;;5051630;28;20497;-28
2022/06/04 13:28:58;;;;;;;4.68;2.35;;;22.70;99.90;;;;;;5037169;28;20036;-30
2022/06/04 13:31:29;;;;;;;;;;;22.70;99.90;;;;;;5051050;28;20029;-28
2022/06/04 13:33:57;;;;;;;2.88;2.60;;;22.60;99.90;;;;;;5045622;28;19909;-29
2022/06/04 13:36:29;;;;;;;2.83;2.28;;;22.70;99.90;;;;;;5033121;28;20482;-30